Time;durP1;ratioP1;P1;durP2;ratioP2;P2;SDS_P1;SDS_P2;PMS_P1;PMS_P2;Temp;Humidity;BMP_temperature;BMP_pressure;BME280_temperature;BME280_humidity;BME280_pressure;Samples;Min_cycle;Max_cycle;Signal;HPM_P1;HPM_P2
2021/06/02 00:00:13;;;;;;;5.03;2.70;;;;;;;11.73;75.02;95358.34;1012396;29;20072;-80
2021/06/02 00:00:44;;;;;;;6.43;2.65;;;;;;;11.68;74.97;95358.94;1016447;29;20067;-80
2021/06/02 00:01:15;;;;;;;5.95;2.35;;;;;;;11.68;75.60;95370.41;1020252;29;20020;-80
2021/06/02 00:01:48;;;;;;;5.32;2.60;;;;;;;11.66;75.48;95355.66;1020304;29;20379;-81
2021/06/02 00:02:19;;;;;;;7.95;2.60;;;;;;;11.79;75.05;95358.41;1020224;29;20034;-80
2021/06/02 00:02:55;;;;;;;6.45;2.92;;;;;;;11.82;75.05;95357.16;1020161;29;20533;-80
2021/06/02 00:03:32;;;;;;;6.25;2.55;;;;;;;11.67;74.61;95330.72;1016331;29;20618;-81
2021/06/02 00:04:05;;;;;;;4.20;2.45;;;;;;;11.66;74.94;95345.84;1016840;29;20048;-81
2021/06/02 00:04:51;;;;;;;7.00;2.63;;;;;;;11.63;74.93;95369.34;1028335;28;20054;-81
2021/06/02 00:05:24;;;;;;;5.13;2.72;;;;;;;11.57;74.77;95357.66;1024246;29;20536;-80
2021/06/02 00:05:58;;;;;;;6.28;2.40;;;;;;;11.45;75.37;95336.13;1016423;29;20032;-80
2021/06/02 00:06:33;;;;;;;5.00;2.47;;;;;;;11.40;74.80;95330.56;1016475;29;20482;-80
2021/06/02 00:07:09;;;;;;;5.78;2.60;;;;;;;11.40;75.10;95330.56;1020166;29;20023;-80
2021/06/02 00:07:43;;;;;;;4.80;2.35;;;;;;;11.43;74.54;95324.88;1020574;29;20026;-80
2021/06/02 00:08:15;;;;;;;4.15;2.40;;;;;;;11.51;74.56;95335.34;1020567;29;20035;-82
2021/06/02 00:08:49;;;;;;;4.88;2.65;;;;;;;11.49;74.24;95334.72;1024526;29;20386;-82
2021/06/02 00:09:22;;;;;;;4.53;2.50;;;;;;;11.40;74.47;95319.13;1028752;28;20537;-80
2021/06/02 00:09:56;;;;;;;4.65;2.10;;;;;;;11.44;73.75;95331.84;1024986;29;20027;-81
2021/06/02 00:10:29;;;;;;;5.00;2.42;;;;;;;11.58;73.80;95350.50;1020967;29;20123;-82
2021/06/02 00:11:03;;;;;;;4.82;2.25;;;;;;;11.64;73.24;95366.50;1020975;29;20537;-82
2021/06/02 00:11:40;;;;;;;4.43;2.22;;;;;;;11.51;72.84;95348.66;1021280;29;20119;-81
2021/06/02 00:12:13;;;;;;;3.03;2.10;;;;;;;11.51;73.51;95353.97;1017072;29;20486;-80
2021/06/02 00:12:48;;;;;;;7.05;2.50;;;;;;;11.37;72.75;95322.97;1021358;29;20099;-81
2021/06/02 00:13:22;;;;;;;4.20;2.60;;;;;;;11.45;72.91;95341.44;1021074;29;20135;-81
2021/06/02 00:13:57;;;;;;;6.65;2.67;;;;;;;11.47;72.94;95343.91;1021107;29;20027;-80
2021/06/02 00:14:33;;;;;;;5.97;2.55;;;;;;;11.64;72.64;95373.66;1024851;29;20027;-82
2021/06/02 00:15:09;;;;;;;4.10;2.50;;;;;;;11.65;72.74;95370.81;1021094;29;20027;-80
2021/06/02 00:15:43;;;;;;;5.15;2.80;;;;;;;11.58;72.72;95359.31;1020992;29;20055;-80
2021/06/02 00:16:21;;;;;;;5.53;2.55;;;;;;;11.44;72.69;95337.16;1020507;29;20055;-79
2021/06/02 00:16:54;;;;;;;5.80;2.65;;;;;;;11.56;72.78;95355.19;1020815;29;20023;-80
2021/06/02 00:17:26;;;;;;;2.83;2.13;;;;;;;11.60;72.57;95353.78;1020691;29;20020;-82
2021/06/02 00:18:00;;;;;;;3.92;2.53;;;;;;;11.59;72.60;95354.81;1020677;29;20106;-81
2021/06/02 00:18:34;;;;;;;4.90;2.47;;;;;;;11.61;72.24;95350.94;1020481;29;20119;-80
2021/06/02 00:19:08;;;;;;;7.03;2.33;;;;;;;11.45;71.97;95328.16;1021014;29;20016;-81
2021/06/02 00:19:44;;;;;;;4.78;2.47;;;;;;;11.78;71.45;95370.03;1024660;29;20081;-81
2021/06/02 00:20:19;;;;;;;4.72;1.98;;;;;;;11.40;71.98;95303.16;1016676;29;20490;-81
2021/06/02 00:20:55;;;;;;;6.50;2.35;;;;;;;11.17;71.68;95268.91;1020606;29;20083;-80
2021/06/02 00:21:30;;;;;;;5.57;2.60;;;;;;;11.08;71.34;95253.13;1020750;29;20047;-80
2021/06/02 00:22:43;;;;;;;4.90;2.58;;;;;;;11.38;72.00;95316.66;1024517;29;20023;-80
2021/06/02 00:23:34;;;;;;;3.30;2.10;;;;;;;11.12;71.21;95267.66;1027964;28;20034;-81
2021/06/02 00:24:23;;;;;;;5.43;2.40;;;;;;;11.49;71.70;95323.25;1035592;28;20038;-81
2021/06/02 00:25:24;;;;;;;5.18;2.35;;;;;;;11.14;72.06;95286.88;1032591;28;20014;-81
2021/06/02 00:26:11;;;;;;;5.75;2.40;;;;;;;11.32;72.41;95320.13;1024584;29;20027;-81
2021/06/02 00:26:49;;;;;;;3.45;2.30;;;;;;;11.63;72.83;95374.66;1016920;29;20028;-81
2021/06/02 00:27:57;;;;;;;6.78;2.25;;;;;;;10.94;72.61;95260.19;1024887;29;20065;-81
2021/06/02 00:29:07;;;;;;;3.75;2.13;;;;;;;11.01;73.85;95272.72;1025374;28;20118;-81
2021/06/02 00:29:48;;;;;;;4.65;2.35;;;;;;;11.56;74.36;95371.16;1021559;29;20028;-81
2021/06/02 00:30:33;;;;;;;3.42;2.55;;;;;;;11.12;74.36;95302.19;1017654;29;20020;-81
2021/06/02 00:31:19;;;;;;;5.97;2.45;;;;;;;10.99;74.93;95285.34;1023410;29;20034;-81
2021/06/02 00:32:10;;;;;;;6.05;2.35;;;;;;;10.93;74.76;95297.59;1028147;28;20026;-81
2021/06/02 00:32:47;;;;;;;5.35;2.38;;;;;;;11.31;75.64;95374.28;1013082;29;20017;-80
2021/06/02 00:33:20;;;;;;;11.07;2.60;;;;;;;10.75;75.67;95288.28;1012179;29;20032;-81
2021/06/02 00:33:54;;;;;;;6.07;2.20;;;;;;;11.27;75.93;95367.72;1016340;29;20534;-81
2021/06/02 00:34:27;;;;;;;5.65;2.78;;;;;;;11.05;76.24;95333.22;1016347;29;20027;-81
2021/06/02 00:34:59;;;;;;;4.72;2.42;;;;;;;11.01;76.04;95331.97;1020324;29;20016;-80
2021/06/02 00:35:32;;;;;;;5.85;2.65;;;;;;;11.25;75.58;95362.59;1016305;29;20103;-81
2021/06/02 00:36:04;;;;;;;3.15;2.40;;;;;;;11.24;76.16;95368.13;1020207;29;20023;-81
2021/06/02 00:36:36;;;;;;;4.43;2.30;;;;;;;11.23;76.16;95371.78;1020214;29;20413;-80
2021/06/02 00:37:09;;;;;;;4.53;2.55;;;;;;;11.19;76.84;95366.03;1024366;29;20031;-80
2021/06/02 00:37:40;;;;;;;3.50;2.35;;;;;;;10.90;76.45;95321.88;1020642;29;20030;-81
2021/06/02 00:38:12;;;;;;;8.25;2.50;;;;;;;10.80;76.41;95295.66;1020531;29;20599;-81
2021/06/02 00:38:44;;;;;;;6.05;2.67;;;;;;;10.90;76.45;95305.94;1016931;29;20195;-81
2021/06/02 00:39:15;;;;;;;5.10;2.47;;;;;;;11.07;76.58;95330.38;1020940;29;20450;-81
2021/06/02 00:39:47;;;;;;;4.70;2.38;;;;;;;10.76;76.50;95302.34;1024543;29;20374;-81
2021/06/02 00:40:31;;;;;;;5.70;2.35;;;;;;;11.20;76.48;95362.38;1024728;29;20027;-81
2021/06/02 00:41:03;;;;;;;4.50;2.33;;;;;;;10.93;76.16;95319.66;1013155;29;20107;-81
2021/06/02 00:41:38;;;;;;;5.72;2.63;;;;;;;11.13;76.77;95362.31;1016638;29;20063;-81
2021/06/02 00:42:11;;;;;;;3.33;2.20;;;;;;;10.97;76.82;95336.03;1020609;29;20497;-81
2021/06/02 00:42:43;;;;;;;4.78;2.40;;;;;;;11.14;76.92;95358.63;1016627;29;20035;-81
2021/06/02 00:43:15;;;;;;;5.15;2.70;;;;;;;11.17;76.72;95360.09;1016463;29;20028;-81
2021/06/02 00:43:48;;;;;;;3.90;2.33;;;;;;;11.01;76.39;95347.94;1016477;29;20020;-81
2021/06/02 00:44:21;;;;;;;5.85;2.55;;;;;;;11.09;76.85;95353.09;1021530;29;20080;-80
2021/06/02 00:44:53;;;;;;;4.90;2.72;;;;;;;11.12;76.90;95359.84;1020265;29;20023;-80
2021/06/02 00:45:25;;;;;;;3.95;2.58;;;;;;;10.96;76.64;95326.44;1018260;29;20032;-80
2021/06/02 00:45:57;;;;;;;5.72;2.55;;;;;;;11.21;76.95;95363.19;1021676;29;20028;-81
2021/06/02 00:46:31;;;;;;;5.15;2.70;;;;;;;11.02;76.89;95332.78;1025813;29;20110;-80
2021/06/02 00:47:05;;;;;;;6.35;2.70;;;;;;;11.22;77.00;95365.66;1013745;29;20032;-80
2021/06/02 00:47:38;;;;;;;4.63;2.47;;;;;;;11.17;77.03;95362.75;1021696;29;20016;-80
2021/06/02 00:48:14;;;;;;;3.67;2.42;;;;;;;11.12;77.45;95363.31;1021253;29;20023;-80
2021/06/02 00:48:48;;;;;;;6.97;2.85;;;;;;;11.06;77.36;95356.13;1017444;29;20129;-80
2021/06/02 00:49:25;;;;;;;4.90;2.58;;;;;;;10.99;77.41;95352.63;1020993;29;20024;-81
2021/06/02 00:49:59;;;;;;;4.78;2.47;;;;;;;10.94;77.75;95339.09;1020898;29;20023;-81
2021/06/02 00:50:31;;;;;;;4.50;2.40;;;;;;;11.04;77.80;95352.00;1020472;29;20137;-80
2021/06/02 00:51:03;;;;;;;3.50;2.25;;;;;;;10.93;77.37;95334.78;1020006;29;20474;-81
2021/06/02 00:51:35;;;;;;;5.13;2.70;;;;;;;11.08;77.72;95364.72;1024227;29;20074;-81
2021/06/02 00:52:08;;;;;;;8.13;2.65;;;;;;;11.12;77.83;95365.16;1020246;29;20508;-81
2021/06/02 00:52:40;;;;;;;4.28;2.88;;;;;;;11.10;77.31;95357.38;1020183;29;20475;-81
2021/06/02 00:53:12;;;;;;;5.13;2.78;;;;;;;11.08;77.89;95353.28;1016445;29;20020;-82
2021/06/02 00:53:44;;;;;;;4.55;2.40;;;;;;;10.97;77.49;95330.72;1016277;29;20021;-81
2021/06/02 00:54:16;;;;;;;5.00;2.67;;;;;;;11.13;77.65;95361.50;1020351;29;20030;-81
2021/06/02 00:54:49;;;;;;;4.07;2.47;;;;;;;11.14;77.61;95361.28;1020197;29;20020;-81
2021/06/02 00:55:24;;;;;;;5.57;2.70;;;;;;;11.01;77.64;95336.47;1020411;29;20103;-81
2021/06/02 00:56:09;;;;;;;4.28;2.97;;;;;;;11.20;77.30;95358.88;1020371;29;20515;-81
2021/06/02 00:57:23;;;;;;;8.23;2.90;;;;;;;11.12;77.35;95350.03;1020326;29;20027;-80
2021/06/02 00:58:03;;;;;;;5.25;2.83;;;;;;;11.11;77.76;95364.34;1023704;29;20031;-81
2021/06/02 00:58:43;;;;;;;8.68;2.90;;;;;;;11.04;78.03;95339.56;1023313;29;20038;-81
2021/06/02 00:59:31;;;;;;;7.00;2.35;;;;;;;11.06;78.16;95361.44;1020295;29;20031;-82
2021/06/02 01:00:10;;;;;;;8.32;2.88;;;;;;;11.10;77.61;95352.06;1024161;29;20027;-81
2021/06/02 01:00:46;;;;;;;4.85;2.63;;;;;;;11.00;78.45;95346.28;1016309;29;20036;-80
2021/06/02 01:01:23;;;;;;;6.47;3.03;;;;;;;10.86;78.27;95323.28;1024125;29;20031;-81
2021/06/02 01:02:01;;;;;;;5.68;2.80;;;;;;;11.11;77.78;95359.03;1024168;29;20023;-80
2021/06/02 01:02:36;;;;;;;8.25;3.30;;;;;;;11.06;77.41;95342.00;1020320;29;20119;-80
2021/06/02 01:03:10;;;;;;;6.25;3.25;;;;;;;10.87;76.82;95306.34;1020740;29;20035;-80
2021/06/02 01:03:48;;;;;;;5.35;3.25;;;;;;;11.16;77.34;95336.38;1018069;29;20024;-81
2021/06/02 01:04:23;;;;;;;7.13;2.90;;;;;;;11.11;76.10;95327.16;1020911;29;20036;-80
2021/06/02 01:04:56;;;;;;;8.00;3.40;;;;;;;11.16;76.45;95334.50;1024073;29;20035;-80
2021/06/02 01:05:32;;;;;;;5.45;2.97;;;;;;;11.22;76.22;95338.25;1023644;29;20200;-80
2021/06/02 01:06:07;;;;;;;7.60;3.53;;;;;;;11.28;76.71;95350.75;1023990;29;20027;-80
2021/06/02 01:06:41;;;;;;;5.70;2.80;;;;;;;11.09;76.42;95321.22;1024113;29;20023;-80
2021/06/02 01:07:25;;;;;;;10.05;3.50;;;;;;;11.28;76.60;95353.41;1024171;29;20035;-80
2021/06/02 01:08:08;;;;;;;4.45;3.25;;;;;;;11.21;76.26;95344.56;1024114;29;20027;-81
2021/06/02 01:08:53;;;;;;;6.57;3.03;;;;;;;10.96;75.90;95301.69;1020573;29;20059;-81
2021/06/02 01:09:34;;;;;;;5.72;3.05;;;;;;;11.22;76.39;95348.88;1016146;29;20028;-82
2021/06/02 01:10:25;;;;;;;7.38;3.33;;;;;;;11.06;76.65;95318.09;1021616;29;20040;-80
2021/06/02 01:11:17;;;;;;;6.90;3.15;;;;;;;11.12;76.33;95333.28;1020860;29;20035;-80
2021/06/02 01:11:56;;;;;;;8.50;3.17;;;;;;;11.27;76.34;95354.44;1019308;29;20032;-81
2021/06/02 01:12:41;;;;;;;8.88;3.47;;;;;;;11.27;76.44;95359.75;1021288;28;20104;-81
2021/06/02 01:13:19;;;;;;;7.78;3.47;;;;;;;11.23;76.66;95345.19;1023930;29;20497;-82
2021/06/02 01:14:21;;;;;;;8.05;3.55;;;;;;;11.01;76.94;95312.56;1024185;29;20097;-82
2021/06/02 01:15:07;;;;;;;5.03;2.92;;;;;;;11.25;76.81;95359.09;1020120;29;20020;-80
2021/06/02 01:16:07;;;;;;;6.82;3.65;;;;;;;11.08;76.54;95330.19;1020360;29;20034;-81
2021/06/02 01:16:58;;;;;;;9.30;3.58;;;;;;;11.22;77.24;95359.50;1022969;29;20032;-81
2021/06/02 01:17:42;;;;;;;9.55;3.25;;;;;;;11.16;77.12;95350.47;1015396;29;20088;-81
2021/06/02 01:18:33;;;;;;;9.95;3.45;;;;;;;11.20;77.09;95353.56;1017086;29;20084;-81
2021/06/02 01:19:23;;;;;;;10.15;3.15;;;;;;;11.22;77.21;95354.19;1021015;29;20028;-80
2021/06/02 01:20:15;;;;;;;6.32;3.55;;;;;;;11.04;77.75;95334.25;1022382;29;20406;-80
2021/06/02 01:21:24;;;;;;;14.98;3.70;;;;;;;11.02;78.13;95333.59;1029170;28;20023;-80
2021/06/02 01:22:14;;;;;;;10.63;3.33;;;;;;;10.98;78.36;95328.88;1032013;28;20574;-80
2021/06/02 01:22:59;;;;;;;7.97;3.72;;;;;;;11.17;77.80;95357.44;1024925;29;20465;-82
2021/06/02 01:23:59;;;;;;;9.25;3.35;;;;;;;11.17;78.31;95353.97;1017072;29;20024;-82
2021/06/02 01:25:16;;;;;;;9.48;3.70;;;;;;;11.05;78.62;95349.16;1024253;29;20016;-81
2021/06/02 01:26:14;;;;;;;5.30;3.08;;;;;;;10.79;78.59;95306.47;1015446;29;20245;-80
2021/06/02 01:27:11;;;;;;;7.20;3.05;;;;;;;11.00;79.57;95351.59;1021285;29;20047;-81
2021/06/02 01:28:01;;;;;;;7.63;3.10;;;;;;;11.01;79.90;95357.75;1021351;29;20008;-80
2021/06/02 01:28:51;;;;;;;6.95;3.50;;;;;;;11.02;79.38;95354.06;1015041;29;20035;-81
2021/06/02 01:29:52;;;;;;;6.30;3.20;;;;;;;10.99;79.78;95343.81;1012832;29;20032;-81
2021/06/02 01:30:37;;;;;;;11.10;2.90;;;;;;;11.00;79.44;95346.28;1008203;29;20068;-81
2021/06/02 01:31:43;;;;;;;6.32;3.55;;;;;;;10.92;79.96;95347.25;1009727;29;20028;-81
2021/06/02 01:32:38;;;;;;;5.95;3.88;;;;;;;11.02;79.53;95356.72;1015138;29;20502;-80
2021/06/02 01:33:46;;;;;;;6.38;3.53;;;;;;;10.96;80.12;95355.66;1016837;29;20514;-81
2021/06/02 01:34:39;;;;;;;16.70;4.45;;;;;;;10.97;80.33;95351.16;1016347;29;20047;-81
2021/06/02 01:35:25;;;;;;;5.07;3.22;;;;;;;10.96;80.37;95352.19;1009003;29;20025;-81
2021/06/02 01:36:13;;;;;;;10.05;3.80;;;;;;;10.84;79.83;95338.59;1009628;29;20025;-80
2021/06/02 01:37:23;;;;;;;5.55;3.80;;;;;;;10.93;80.03;95351.53;1013445;29;20040;-80
2021/06/02 01:38:39;;;;;;;5.85;3.90;;;;;;;10.90;80.33;95356.41;1028054;28;20035;-79
2021/06/02 01:39:38;;;;;;;9.43;3.80;;;;;;;10.90;81.14;95357.25;1016682;29;20634;-81
2021/06/02 01:40:31;;;;;;;15.48;5.57;;;;;;;10.89;81.13;95350.28;1020655;29;20267;-81
2021/06/02 01:41:09;;;;;;;8.75;4.60;;;;;;;10.77;82.18;95351.00;1020414;29;20122;-80
2021/06/02 01:41:51;;;;;;;10.48;3.63;;;;;;;10.61;82.63;95325.56;1020627;29;20027;-80
2021/06/02 01:42:26;;;;;;;10.57;4.07;;;;;;;10.77;82.30;95351.00;1012573;29;20024;-80
2021/06/02 01:44:03;;;;;;;10.95;4.30;;;;;;;10.72;83.11;95348.91;1016872;29;20024;-81
2021/06/02 01:45:23;;;;;;;10.25;4.43;;;;;;;10.71;82.69;95333.97;1008414;29;20033;-81
2021/06/02 01:46:41;;;;;;;;;;;;;;;10.77;82.30;95353.66;1004609;29;20377;-81
2021/06/02 01:48:35;;;;;;;11.10;3.88;;;;;;;10.74;82.41;95347.69;995781;29;19959;-81
2021/06/02 01:50:26;;;;;;;8.00;3.83;;;;;;;10.70;82.12;95349.09;1009717;29;20102;-82
2021/06/02 01:52:07;;;;;;;5.97;3.08;;;;;;;10.54;82.92;95325.50;1014197;29;20087;-81
2021/06/02 01:53:20;;;;;;;7.63;3.50;;;;;;;10.65;82.55;95343.53;1003647;29;20033;-81
2021/06/02 01:55:19;;;;;;;8.90;3.60;;;;;;;10.69;82.48;95339.50;1001610;29;20101;-82
2021/06/02 01:56:42;;;;;;;10.73;3.55;;;;;;;10.71;81.99;95342.78;1001458;29;20595;-80
2021/06/02 02:11:33;;;;;;;6.22;3.50;;;;;;;10.47;84.60;95349.31;632333;26;20356;-81
2021/06/02 02:12:36;;;;;;;7.65;3.40;;;;;;;9.85;84.22;95243.78;1021538;29;20043;-80
2021/06/02 02:14:00;;;;;;;5.32;3.55;;;;;;;10.53;84.36;95342.41;1021122;29;20024;-81
2021/06/02 02:15:56;;;;;;;6.43;3.40;;;;;;;10.51;84.03;95342.59;1008227;29;20033;-81
2021/06/02 02:17:24;;;;;;;6.00;3.15;;;;;;;9.93;83.05;95249.78;1013115;29;20056;-81
2021/06/02 02:18:40;;;;;;;7.10;3.17;;;;;;;10.49;83.90;95343.81;1013413;29;20035;-81
2021/06/02 02:19:53;;;;;;;7.15;3.40;;;;;;;9.88;83.94;95254.03;1028841;28;20031;-81
2021/06/02 02:20:54;;;;;;;6.80;3.60;;;;;;;10.45;84.38;95351.34;1024482;29;20042;-81
2021/06/02 02:22:15;;;;;;;6.78;3.40;;;;;;;9.79;85.07;95250.66;1020719;29;20071;-81
2021/06/02 02:23:30;;;;;;;5.72;3.20;;;;;;;10.37;85.87;95346.97;1017307;29;20028;-81
2021/06/02 02:24:25;;;;;;;7.93;3.75;;;;;;;10.34;86.57;95347.34;1017697;29;20031;-80
2021/06/02 02:25:10;;;;;;;7.25;3.85;;;;;;;9.82;87.15;95277.63;1012356;29;20028;-81
2021/06/02 02:26:00;;;;;;;6.47;3.88;;;;;;;10.24;87.84;95351.28;1008624;29;20177;-80
2021/06/02 02:26:58;;;;;;;8.23;4.10;;;;;;;10.21;87.94;95349.84;1016503;29;20449;-81
2021/06/02 02:30:13;;;;;;;5.72;3.95;;;;;;;10.24;87.89;95345.97;1015332;29;20059;-81
2021/06/02 02:31:43;;;;;;;6.82;3.47;;;;;;;9.48;87.75;95238.50;1013026;29;20065;-82
2021/06/02 02:33:37;;;;;;;7.80;3.63;;;;;;;10.20;87.93;95353.50;1009580;29;20535;-82
2021/06/02 02:35:06;;;;;;;5.28;3.00;;;;;;;9.51;88.15;95251.38;1004145;29;20034;-81
2021/06/02 02:36:38;;;;;;;8.68;3.10;;;;;;;10.21;87.38;95363.13;1020347;29;20032;-81
2021/06/02 02:39:59;;;;;;;7.70;3.97;;;;;;;10.06;91.03;95365.00;1024045;29;19915;-80
2021/06/02 02:41:31;;;;;;;7.35;4.05;;;;;;;9.94;93.32;95370.75;1023794;29;20541;-79
2021/06/02 02:42:49;;;;;;;6.35;3.58;;;;;;;9.83;94.44;95371.25;1023920;29;20028;-80
2021/06/02 02:44:00;;;;;;;8.82;4.07;;;;;;;9.77;96.24;95369.34;1023605;29;20038;-80
2021/06/02 02:45:07;;;;;;;7.30;4.22;;;;;;;9.76;95.85;95371.19;1019551;29;20028;-80
2021/06/02 02:46:17;;;;;;;7.32;4.00;;;;;;;9.81;96.28;95371.44;1020731;29;20047;-81
2021/06/02 02:47:16;;;;;;;6.53;4.50;;;;;;;9.83;95.66;95371.25;1024798;29;20026;-81
2021/06/02 02:47:55;;;;;;;;;;;;;;;9.78;95.36;95369.16;1019902;29;20032;-81
2021/06/02 02:49:21;;;;;;;8.65;4.32;;;;;;;9.33;95.95;95302.13;1021496;29;19907;-81
2021/06/02 02:50:37;;;;;;;6.80;4.28;;;;;;;9.00;97.19;95264.59;1016211;29;20494;-81
2021/06/02 02:52:05;;;;;;;10.25;4.30;;;;;;;9.71;96.54;95367.44;1025059;28;20030;-81
2021/06/02 02:54:12;;;;;;;6.10;4.25;;;;;;;9.11;96.49;95250.06;1021703;29;20059;-81
2021/06/02 02:55:13;;;;;;;10.13;4.20;;;;;;;9.79;95.99;95359.38;1025758;28;20039;-81
2021/06/02 02:56:04;;;;;;;9.70;4.50;;;;;;;9.15;96.31;95273.38;1028760;28;20031;-81
2021/06/02 02:57:52;;;;;;;6.85;4.18;;;;;;;9.72;96.41;95355.81;1020387;29;20032;-81
2021/06/02 02:58:47;;;;;;;6.22;3.88;;;;;;;9.63;96.79;95358.59;1017363;29;20032;-82
2021/06/02 02:59:52;;;;;;;7.38;3.85;;;;;;;9.68;96.51;95360.66;1021188;29;20071;-81
2021/06/02 03:00:36;;;;;;;8.82;4.15;;;;;;;9.21;95.49;95285.88;1019550;29;20091;-81
2021/06/02 03:01:58;;;;;;;7.88;4.43;;;;;;;9.28;95.33;95306.31;1005597;29;20025;-82
2021/06/02 03:03:39;;;;;;;7.82;3.83;;;;;;;9.16;96.19;95282.97;1009715;29;20041;-81
2021/06/02 03:04:36;;;;;;;7.45;4.10;;;;;;;9.10;96.65;95282.88;1011633;29;20040;-81
2021/06/02 03:05:43;;;;;;;8.27;4.18;;;;;;;9.08;97.16;95271.63;1008280;29;20106;-82
2021/06/02 03:07:48;;;;;;;6.07;3.58;;;;;;;9.11;96.62;95271.25;1021085;29;20019;-82
2021/06/02 03:08:52;;;;;;;6.65;3.70;;;;;;;9.63;96.14;95347.97;1017017;29;20104;-82
2021/06/02 03:09:43;;;;;;;8.88;4.60;;;;;;;9.21;95.88;95282.41;1016840;29;20370;-82
2021/06/02 03:10:23;;;;;;;7.25;4.20;;;;;;;9.71;95.70;95368.25;1020510;29;20023;-82
2021/06/02 03:11:17;;;;;;;5.50;3.80;;;;;;;9.06;95.69;95266.53;1016434;29;20040;-81
2021/06/02 03:12:27;;;;;;;5.82;4.10;;;;;;;9.67;95.48;95366.19;1011949;29;20387;-80
2021/06/02 03:13:03;;;;;;;7.85;4.00;;;;;;;9.11;95.91;95290.63;1016856;29;20044;-82
2021/06/02 03:13:43;;;;;;;6.50;3.80;;;;;;;9.58;96.29;95368.91;1014397;29;20051;-80
2021/06/02 03:14:20;;;;;;;8.02;3.78;;;;;;;9.62;96.26;95372.03;1012579;29;20431;-81
2021/06/02 03:15:37;;;;;;;9.43;4.22;;;;;;;8.96;96.01;95255.38;1012919;29;20443;-81
2021/06/02 03:16:18;;;;;;;8.35;4.10;;;;;;;9.02;96.14;95287.25;1023366;29;20023;-81
2021/06/02 03:17:15;;;;;;;8.88;3.92;;;;;;;9.13;96.94;95307.16;1013201;29;20036;-82
2021/06/02 03:18:07;;;;;;;6.85;4.00;;;;;;;8.99;97.79;95289.44;1011349;29;20036;-81
2021/06/02 03:19:00;;;;;;;8.43;4.50;;;;;;;8.99;98.82;95308.00;1017455;29;20032;-82
2021/06/02 03:19:44;;;;;;;12.05;4.38;;;;;;;8.68;98.88;95261.31;1014421;29;20479;-80
2021/06/02 03:20:45;;;;;;;8.57;4.07;;;;;;;9.24;99.25;95367.63;1008770;29;20021;-80
2021/06/02 03:22:08;;;;;;;7.00;4.15;;;;;;;8.96;98.24;95311.81;1018774;29;20529;-81
2021/06/02 03:23:03;;;;;;;8.68;3.97;;;;;;;9.43;98.56;95373.41;1015356;29;20024;-80
2021/06/02 03:24:46;;;;;;;7.05;3.80;;;;;;;8.76;96.84;95263.88;1017473;29;20543;-81
2021/06/02 03:25:27;;;;;;;6.50;3.30;;;;;;;9.10;96.39;95314.66;1019637;28;20883;-81
2021/06/02 03:26:28;;;;;;;7.93;3.83;;;;;;;9.50;95.26;95376.97;1020794;29;20015;-81
2021/06/02 03:27:19;;;;;;;5.45;3.47;;;;;;;9.51;94.19;95381.25;1019063;29;20044;-81
2021/06/02 03:28:31;;;;;;;11.90;4.25;;;;;;;8.90;93.96;95275.47;1012298;29;20048;-82
2021/06/02 03:30:04;;;;;;;8.85;3.70;;;;;;;9.49;94.06;95377.13;709313;26;21199;-81
2021/06/02 03:30:59;;;;;;;6.55;3.67;;;;;;;8.85;93.25;95277.84;1026701;28;20039;-81
2021/06/02 03:32:00;;;;;;;7.38;3.78;;;;;;;9.59;93.00;95377.69;1018657;29;20528;-82
2021/06/02 03:32:47;;;;;;;6.22;3.40;;;;;;;9.10;92.96;95307.53;1017918;29;20032;-82
2021/06/02 03:33:37;;;;;;;10.23;3.83;;;;;;;9.65;92.73;95386.72;1016238;29;20111;-81
2021/06/02 03:34:18;;;;;;;8.32;4.20;;;;;;;9.64;92.19;95383.25;1018862;29;20052;-81
2021/06/02 03:35:08;;;;;;;11.13;3.72;;;;;;;9.63;92.80;95384.25;1020667;29;20024;-82
2021/06/02 03:36:06;;;;;;;5.80;3.67;;;;;;;9.58;92.70;95384.81;1021306;29;20107;-81
2021/06/02 03:37:12;;;;;;;7.47;3.55;;;;;;;9.57;92.31;95383.16;1024593;28;20019;-82
2021/06/02 03:37:55;;;;;;;10.88;3.80;;;;;;;9.60;92.74;95388.09;1020826;29;20046;-81
2021/06/02 03:38:41;;;;;;;7.13;3.70;;;;;;;9.63;92.75;95387.75;1016863;29;20491;-81
2021/06/02 03:39:37;;;;;;;7.93;3.83;;;;;;;9.57;92.78;95371.75;1016866;29;20462;-81
2021/06/02 03:40:20;;;;;;;8.02;3.83;;;;;;;9.68;92.77;95386.38;1012773;29;20024;-80
2021/06/02 03:41:09;;;;;;;17.33;5.00;;;;;;;9.54;93.68;95370.28;1020850;29;20082;-81
2021/06/02 03:41:58;;;;;;;;;;;;;;;9.63;94.89;95387.75;1017297;29;20024;-81
2021/06/02 03:42:57;;;;;;;6.43;4.10;;;;;;;9.61;95.59;95387.13;1017124;29;19911;-81
2021/06/02 03:43:35;;;;;;;8.45;4.43;;;;;;;9.63;95.31;95386.91;1015334;29;20056;-81
2021/06/02 03:44:16;;;;;;;7.18;3.58;;;;;;;9.62;94.16;95390.59;1017352;29;20119;-82
2021/06/02 03:45:05;;;;;;;7.75;3.80;;;;;;;9.62;94.16;95388.75;1021197;29;20506;-81
2021/06/02 03:45:59;;;;;;;10.00;4.38;;;;;;;9.57;93.92;95377.88;1017611;29;20031;-82
2021/06/02 03:47:02;;;;;;;6.53;4.05;;;;;;;9.47;94.14;95376.50;1019731;29;20055;-81
2021/06/02 03:47:44;;;;;;;6.97;4.03;;;;;;;9.54;94.31;95375.56;1018080;29;20032;-81
2021/06/02 03:48:28;;;;;;;6.57;3.97;;;;;;;9.66;93.98;95389.19;1023059;29;20019;-82
2021/06/02 03:49:16;;;;;;;9.15;4.38;;;;;;;9.70;94.49;95392.28;1022235;29;20051;-81
2021/06/02 03:50:02;;;;;;;9.52;4.80;;;;;;;9.56;93.81;95367.44;1014171;29;20099;-81
2021/06/02 03:50:42;;;;;;;9.10;4.38;;;;;;;9.66;93.84;95394.50;1022532;29;20024;-82
2021/06/02 03:51:30;;;;;;;7.25;4.43;;;;;;;9.41;94.25;95346.25;1022600;29;20016;-81
2021/06/02 03:52:06;;;;;;;17.83;4.82;;;;;;;9.46;93.98;95362.44;1017966;29;20024;-81
2021/06/02 03:52:36;;;;;;;13.80;4.90;;;;;;;9.68;94.32;95399.63;1021189;29;20062;-82
2021/06/02 03:53:30;;;;;;;11.13;4.95;;;;;;;9.63;93.93;95400.16;1021247;29;20041;-81
2021/06/02 03:54:04;;;;;;;12.38;5.13;;;;;;;9.66;93.54;95396.34;1025334;29;20023;-81
2021/06/02 03:54:53;;;;;;;13.70;4.82;;;;;;;9.62;93.75;95401.19;1025144;29;20023;-81
2021/06/02 03:55:28;;;;;;;11.43;4.40;;;;;;;9.66;93.32;95401.63;1017675;29;20091;-81
2021/06/02 03:56:36;;;;;;;11.40;4.35;;;;;;;9.55;92.15;95400.28;1013503;29;20425;-81
2021/06/02 03:57:13;;;;;;;13.02;4.57;;;;;;;9.55;92.89;95403.75;1018733;29;20079;-81
2021/06/02 03:57:50;;;;;;;10.48;5.00;;;;;;;9.40;92.32;95382.56;1023017;29;20032;-82
2021/06/02 03:58:59;;;;;;;8.55;4.10;;;;;;;9.43;92.24;95397.25;1009843;29;20032;-81
2021/06/02 03:59:51;;;;;;;10.85;5.18;;;;;;;9.44;92.81;95401.56;1013766;29;20020;-81
2021/06/02 04:00:27;;;;;;;8.73;4.65;;;;;;;9.39;92.84;95411.88;1025247;29;20030;-81
2021/06/02 04:01:33;;;;;;;7.65;4.18;;;;;;;9.37;93.01;95414.72;1014408;29;20032;-81
2021/06/02 04:02:25;;;;;;;9.57;4.53;;;;;;;9.25;94.63;95401.06;1013455;29;20028;-81
2021/06/02 04:03:02;;;;;;;12.57;4.65;;;;;;;9.44;94.00;95409.50;1017324;29;20028;-81
2021/06/02 04:03:45;;;;;;;14.65;5.53;;;;;;;9.49;93.33;95411.59;1018751;29;20028;-81
2021/06/02 04:04:24;;;;;;;10.38;4.40;;;;;;;9.52;93.63;95416.53;1022608;29;20031;-80
2021/06/02 04:05:25;;;;;;;13.23;5.25;;;;;;;9.42;93.60;95417.63;1014787;29;20029;-80
2021/06/02 04:06:03;;;;;;;9.52;4.65;;;;;;;9.39;93.19;95411.88;1015362;29;20068;-79
2021/06/02 04:07:04;;;;;;;8.40;4.43;;;;;;;9.32;93.21;95416.22;1011021;29;20036;-80
2021/06/02 04:07:49;;;;;;;8.90;4.13;;;;;;;9.33;93.62;95418.72;1017863;29;20027;-79
2021/06/02 04:08:33;;;;;;;8.50;3.88;;;;;;;9.30;93.85;95415.59;1018200;29;20031;-81
2021/06/02 04:09:13;;;;;;;10.32;4.00;;;;;;;9.35;93.64;95416.72;1012360;29;20029;-81
2021/06/02 04:09:54;;;;;;;6.95;4.53;;;;;;;9.30;93.48;95408.50;1020671;29;20118;-82
2021/06/02 04:10:56;;;;;;;6.88;3.70;;;;;;;9.36;93.89;95412.25;1018259;29;20107;-82
2021/06/02 04:11:49;;;;;;;9.63;4.72;;;;;;;9.19;92.93;95363.88;1019754;29;20024;-81
2021/06/02 04:12:44;;;;;;;11.73;4.32;;;;;;;9.51;91.93;95410.44;1025641;29;20024;-81
2021/06/02 04:13:28;;;;;;;9.73;4.82;;;;;;;9.53;91.39;95412.91;1026756;29;20059;-82
2021/06/02 04:14:05;;;;;;;8.50;4.35;;;;;;;9.56;91.48;95407.19;1019865;29;20035;-82
2021/06/02 04:14:36;;;;;;;8.57;4.28;;;;;;;9.60;91.16;95409.31;1022970;29;20023;-81
2021/06/02 04:15:10;;;;;;;9.38;4.50;;;;;;;9.45;91.02;95389.94;1018911;29;20042;-82
2021/06/02 04:15:42;;;;;;;6.57;4.10;;;;;;;9.28;90.83;95354.03;1022818;29;20031;-82
2021/06/02 04:16:15;;;;;;;10.32;4.18;;;;;;;9.28;91.07;95352.19;1014762;29;20035;-81
2021/06/02 04:16:46;;;;;;;12.00;4.38;;;;;;;9.43;90.71;95376.06;1023304;29;20028;-81